sensor_id;sensor_type;location;lat;lon;timestamp;temperature;humidity
72865;DHT22;61000;48.120;11.548;2024-01-07T00:02:00;1.50;99.90
72865;DHT22;61000;48.120;11.548;2024-01-07T00:04:27;1.50;99.90
72865;DHT22;61000;48.120;11.548;2024-01-07T00:06:54;1.50;99.90
72865;DHT22;61000;48.120;11.548;2024-01-07T00:09:20;1.50;99.90
72865;DHT22;61000;48.120;11.548;2024-01-07T00:11:47;1.40;99.90
72865;DHT22;61000;48.120;11.548;2024-01-07T00:14:16;1.50;99.90
72865;DHT22;61000;48.120;11.548;2024-01-07T00:16:43;1.40;99.90
72865;DHT22;61000;48.120;11.548;2024-01-07T00:19:10;1.40;99.90
72865;DHT22;61000;48.120;11.548;2024-01-07T00:21:37;1.50;99.90
72865;DHT22;61000;48.120;11.548;2024-01-07T00:24:04;1.40;99.90
72865;DHT22;61000;48.120;11.548;2024-01-07T00:26:31;1.40;99.90
72865;DHT22;61000;48.120;11.548;2024-01-07T00:28:58;1.40;99.90
72865;DHT22;61000;48.120;11.548;2024-01-07T00:31:26;0.90;99.90
72865;DHT22;61000;48.120;11.548;2024-01-07T00:33:53;1.50;99.90
72865;DHT22;61000;48.120;11.548;2024-01-07T00:36:20;1.40;99.90
72865;DHT22;61000;48.120;11.548;2024-01-07T00:38:47;1.40;99.90
72865;DHT22;61000;48.120;11.548;2024-01-07T00:41:14;1.40;99.90
72865;DHT22;61000;48.120;11.548;2024-01-07T00:43:41;1.40;99.90
72865;DHT22;61000;48.120;11.548;2024-01-07T00:46:08;1.40;99.90
72865;DHT22;61000;48.120;11.548;2024-01-07T00:48:36;1.50;99.90
72865;DHT22;61000;48.120;11.548;2024-01-07T00:51:04;1.40;99.90
72865;DHT22;61000;48.120;11.548;2024-01-07T00:53:31;1.40;99.90
72865;DHT22;61000;48.120;11.548;2024-01-07T00:55:58;1.50;99.90
72865;DHT22;61000;48.120;11.548;2024-01-07T00:58:24;1.40;99.90
72865;DHT22;61000;48.120;11.548;2024-01-07T01:00:51;1.40;99.90
72865;DHT22;61000;48.120;11.548;2024-01-07T01:03:19;1.50;99.90
72865;DHT22;61000;48.120;11.548;2024-01-07T01:05:48;1.40;99.90
72865;DHT22;61000;48.120;11.548;2024-01-07T01:08:14;1.40;99.90
72865;DHT22;61000;48.120;11.548;2024-01-07T01:10:42;1.40;99.90
72865;DHT22;61000;48.120;11.548;2024-01-07T01:13:09;1.40;99.90
72865;DHT22;61000;48.120;11.548;2024-01-07T01:15:36;1.40;99.90
72865;DHT22;61000;48.120;11.548;2024-01-07T01:18:04;1.40;99.90
72865;DHT22;61000;48.120;11.548;2024-01-07T01:20:31;1.40;99.90
72865;DHT22;61000;48.120;11.548;2024-01-07T01:22:59;1.40;99.90
72865;DHT22;61000;48.120;11.548;2024-01-07T01:25:26;1.40;99.90
72865;DHT22;61000;48.120;11.548;2024-01-07T01:27:53;1.40;99.90
72865;DHT22;61000;48.120;11.548;2024-01-07T01:30:20;1.40;99.90
72865;DHT22;61000;48.120;11.548;2024-01-07T01:35:14;1.30;99.90
72865;DHT22;61000;48.120;11.548;2024-01-07T01:37:41;1.40;99.90
72865;DHT22;61000;48.120;11.548;2024-01-07T01:40:10;1.40;99.90
72865;DHT22;61000;48.120;11.548;2024-01-07T01:42:38;1.30;99.90
72865;DHT22;61000;48.120;11.548;2024-01-07T01:45:05;1.30;99.90
72865;DHT22;61000;48.120;11.548;2024-01-07T01:47:32;1.30;99.90
72865;DHT22;61000;48.120;11.548;2024-01-07T01:49:59;1.50;99.90
72865;DHT22;61000;48.120;11.548;2024-01-07T01:52:27;1.30;99.90
72865;DHT22;61000;48.120;11.548;2024-01-07T01:54:54;1.30;99.90
72865;DHT22;61000;48.120;11.548;2024-01-07T01:57:24;1.30;99.90
72865;DHT22;61000;48.120;11.548;2024-01-07T01:59:55;1.30;99.90
72865;DHT22;61000;48.120;11.548;2024-01-07T02:02:27;1.30;99.90
72865;DHT22;61000;48.120;11.548;2024-01-07T02:04:56;1.30;99.90
72865;DHT22;61000;48.120;11.548;2024-01-07T02:07:24;1.30;99.90
72865;DHT22;61000;48.120;11.548;2024-01-07T02:09:51;1.30;99.90
72865;DHT22;61000;48.120;11.548;2024-01-07T02:12:18;1.30;99.90
72865;DHT22;61000;48.120;11.548;2024-01-07T02:14:46;1.30;99.90
72865;DHT22;61000;48.120;11.548;2024-01-07T02:17:14;1.40;99.90
72865;DHT22;61000;48.120;11.548;2024-01-07T02:19:41;1.30;99.90
72865;DHT22;61000;48.120;11.548;2024-01-07T02:22:07;1.40;99.90
72865;DHT22;61000;48.120;11.548;2024-01-07T02:24:36;1.30;99.90
72865;DHT22;61000;48.120;11.548;2024-01-07T02:27:03;1.30;99.90
72865;DHT22;61000;48.120;11.548;2024-01-07T02:29:29;1.30;99.90
72865;DHT22;61000;48.120;11.548;2024-01-07T02:31:56;1.30;99.90
72865;DHT22;61000;48.120;11.548;2024-01-07T02:34:23;1.40;99.90
72865;DHT22;61000;48.120;11.548;2024-01-07T02:36:50;1.30;99.90
72865;DHT22;61000;48.120;11.548;2024-01-07T02:39:17;1.30;99.90
72865;DHT22;61000;48.120;11.548;2024-01-07T02:41:46;1.30;99.90
72865;DHT22;61000;48.120;11.548;2024-01-07T02:44:13;1.30;99.90
72865;DHT22;61000;48.120;11.548;2024-01-07T02:46:40;1.30;99.90
72865;DHT22;61000;48.120;11.548;2024-01-07T02:49:07;1.40;99.90
72865;DHT22;61000;48.120;11.548;2024-01-07T02:51:34;1.20;99.90
72865;DHT22;61000;48.120;11.548;2024-01-07T02:54:01;1.30;99.90
72865;DHT22;61000;48.120;11.548;2024-01-07T02:56:28;1.30;99.90
72865;DHT22;61000;48.120;11.548;2024-01-07T02:58:56;1.30;99.90
72865;DHT22;61000;48.120;11.548;2024-01-07T03:01:23;1.30;99.90
72865;DHT22;61000;48.120;11.548;2024-01-07T03:03:50;1.30;99.90
72865;DHT22;61000;48.120;11.548;2024-01-07T03:06:17;1.40;99.90
72865;DHT22;61000;48.120;11.548;2024-01-07T03:08:44;1.30;99.90
72865;DHT22;61000;48.120;11.548;2024-01-07T03:11:11;1.40;99.90
72865;DHT22;61000;48.120;11.548;2024-01-07T03:13:38;1.30;99.90
72865;DHT22;61000;48.120;11.548;2024-01-07T03:16:08;1.40;99.90
72865;DHT22;61000;48.120;11.548;2024-01-07T03:18:45;1.20;99.90
72865;DHT22;61000;48.120;11.548;2024-01-07T03:21:17;1.30;99.90
72865;DHT22;61000;48.120;11.548;2024-01-07T03:23:44;1.30;99.90
72865;DHT22;61000;48.120;11.548;2024-01-07T03:26:11;1.30;99.90
72865;DHT22;61000;48.120;11.548;2024-01-07T03:28:37;1.30;99.90
72865;DHT22;61000;48.120;11.548;2024-01-07T03:31:05;1.30;99.90
72865;DHT22;61000;48.120;11.548;2024-01-07T03:33:34;1.30;99.90
72865;DHT22;61000;48.120;11.548;2024-01-07T03:36:01;1.40;99.90
72865;DHT22;61000;48.120;11.548;2024-01-07T03:38:27;1.30;99.90
72865;DHT22;61000;48.120;11.548;2024-01-07T03:40:54;1.30;99.90
72865;DHT22;61000;48.120;11.548;2024-01-07T03:43:21;1.40;99.90
72865;DHT22;61000;48.120;11.548;2024-01-07T03:45:48;1.40;99.90
72865;DHT22;61000;48.120;11.548;2024-01-07T03:48:15;1.30;99.90
72865;DHT22;61000;48.120;11.548;2024-01-07T03:50:43;1.30;99.90
72865;DHT22;61000;48.120;11.548;2024-01-07T03:53:10;1.30;99.90
72865;DHT22;61000;48.120;11.548;2024-01-07T03:55:37;1.30;99.90
72865;DHT22;61000;48.120;11.548;2024-01-07T03:58:04;1.40;99.90
72865;DHT22;61000;48.120;11.548;2024-01-07T04:00:31;1.40;99.90
72865;DHT22;61000;48.120;11.548;2024-01-07T04:02:58;1.40;99.90
72865;DHT22;61000;48.120;11.548;2024-01-07T04:05:25;1.40;99.90
72865;DHT22;61000;48.120;11.548;2024-01-07T04:07:53;1.40;99.90
72865;DHT22;61000;48.120;11.548;2024-01-07T04:10:20;1.40;99.90
72865;DHT22;61000;48.120;11.548;2024-01-07T04:12:47;1.60;99.90
72865;DHT22;61000;48.120;11.548;2024-01-07T04:15:14;1.40;99.90
72865;DHT22;61000;48.120;11.548;2024-01-07T04:17:41;1.50;99.90
72865;DHT22;61000;48.120;11.548;2024-01-07T04:20:12;1.50;99.90
72865;DHT22;61000;48.120;11.548;2024-01-07T04:22:39;1.40;99.90
72865;DHT22;61000;48.120;11.548;2024-01-07T04:25:07;1.40;99.90
72865;DHT22;61000;48.120;11.548;2024-01-07T04:27:36;1.30;99.90
72865;DHT22;61000;48.120;11.548;2024-01-07T04:30:04;1.30;99.90
72865;DHT22;61000;48.120;11.548;2024-01-07T04:32:31;1.30;99.90
72865;DHT22;61000;48.120;11.548;2024-01-07T04:34:58;1.40;99.90
72865;DHT22;61000;48.120;11.548;2024-01-07T04:37:25;1.40;99.90
72865;DHT22;61000;48.120;11.548;2024-01-07T04:39:52;1.40;99.90
72865;DHT22;61000;48.120;11.548;2024-01-07T04:42:20;1.30;99.90
72865;DHT22;61000;48.120;11.548;2024-01-07T04:44:47;1.30;99.90
72865;DHT22;61000;48.120;11.548;2024-01-07T04:47:27;1.50;99.90
72865;DHT22;61000;48.120;11.548;2024-01-07T04:49:54;1.40;99.90
72865;DHT22;61000;48.120;11.548;2024-01-07T04:52:22;1.50;99.90
72865;DHT22;61000;48.120;11.548;2024-01-07T04:54:49;1.40;99.90
72865;DHT22;61000;48.120;11.548;2024-01-07T04:57:16;1.40;99.90
72865;DHT22;61000;48.120;11.548;2024-01-07T04:59:44;1.40;99.90
72865;DHT22;61000;48.120;11.548;2024-01-07T05:02:12;1.40;99.90
72865;DHT22;61000;48.120;11.548;2024-01-07T05:04:39;1.40;99.90
72865;DHT22;61000;48.120;11.548;2024-01-07T05:07:05;1.40;99.90
72865;DHT22;61000;48.120;11.548;2024-01-07T05:09:33;1.40;99.90
72865;DHT22;61000;48.120;11.548;2024-01-07T05:12:00;1.60;99.90
72865;DHT22;61000;48.120;11.548;2024-01-07T05:14:27;1.40;99.90
72865;DHT22;61000;48.120;11.548;2024-01-07T05:16:55;1.50;99.90
72865;DHT22;61000;48.120;11.548;2024-01-07T05:19:22;1.50;99.90
72865;DHT22;61000;48.120;11.548;2024-01-07T05:21:49;1.40;99.90
72865;DHT22;61000;48.120;11.548;2024-01-07T05:24:16;1.40;99.90
72865;DHT22;61000;48.120;11.548;2024-01-07T05:26:44;1.50;99.90
72865;DHT22;61000;48.120;11.548;2024-01-07T05:29:11;1.40;99.90
72865;DHT22;61000;48.120;11.548;2024-01-07T05:31:39;1.40;99.90
72865;DHT22;61000;48.120;11.548;2024-01-07T05:34:07;1.50;99.90
72865;DHT22;61000;48.120;11.548;2024-01-07T05:36:34;1.60;99.90
72865;DHT22;61000;48.120;11.548;2024-01-07T05:39:01;1.40;99.90
72865;DHT22;61000;48.120;11.548;2024-01-07T05:41:28;1.40;99.90
72865;DHT22;61000;48.120;11.548;2024-01-07T05:43:55;1.40;99.90
72865;DHT22;61000;48.120;11.548;2024-01-07T05:46:22;1.30;99.90
72865;DHT22;61000;48.120;11.548;2024-01-07T05:48:49;1.40;99.90
72865;DHT22;61000;48.120;11.548;2024-01-07T05:51:17;1.30;99.90
72865;DHT22;61000;48.120;11.548;2024-01-07T05:53:45;1.40;99.90
72865;DHT22;61000;48.120;11.548;2024-01-07T05:56:12;1.40;99.90
72865;DHT22;61000;48.120;11.548;2024-01-07T05:58:39;1.30;99.90
72865;DHT22;61000;48.120;11.548;2024-01-07T06:01:07;1.30;99.90
72865;DHT22;61000;48.120;11.548;2024-01-07T06:03:34;1.30;99.90
72865;DHT22;61000;48.120;11.548;2024-01-07T06:06:01;1.40;99.90
72865;DHT22;61000;48.120;11.548;2024-01-07T06:08:29;1.70;99.90
72865;DHT22;61000;48.120;11.548;2024-01-07T06:10:56;1.30;99.90
72865;DHT22;61000;48.120;11.548;2024-01-07T06:13:23;1.40;99.90
72865;DHT22;61000;48.120;11.548;2024-01-07T06:15:52;1.30;99.90
72865;DHT22;61000;48.120;11.548;2024-01-07T06:18:19;1.30;99.90
72865;DHT22;61000;48.120;11.548;2024-01-07T06:20:45;1.30;99.90
72865;DHT22;61000;48.120;11.548;2024-01-07T06:23:12;1.40;99.90
72865;DHT22;61000;48.120;11.548;2024-01-07T06:25:40;1.30;99.90
72865;DHT22;61000;48.120;11.548;2024-01-07T06:28:08;1.20;99.90
72865;DHT22;61000;48.120;11.548;2024-01-07T06:30:35;1.10;99.90
72865;DHT22;61000;48.120;11.548;2024-01-07T06:33:03;1.40;99.90
72865;DHT22;61000;48.120;11.548;2024-01-07T06:35:30;1.30;99.90
72865;DHT22;61000;48.120;11.548;2024-01-07T06:37:57;1.30;99.90
72865;DHT22;61000;48.120;11.548;2024-01-07T06:40:25;1.10;99.90
72865;DHT22;61000;48.120;11.548;2024-01-07T06:42:53;1.20;99.90
72865;DHT22;61000;48.120;11.548;2024-01-07T06:45:20;1.10;99.90
72865;DHT22;61000;48.120;11.548;2024-01-07T06:47:47;1.20;99.90
72865;DHT22;61000;48.120;11.548;2024-01-07T06:50:14;1.10;99.90
72865;DHT22;61000;48.120;11.548;2024-01-07T06:52:41;1.10;99.90
72865;DHT22;61000;48.120;11.548;2024-01-07T06:55:08;1.40;99.90
72865;DHT22;61000;48.120;11.548;2024-01-07T06:57:35;1.30;99.90
72865;DHT22;61000;48.120;11.548;2024-01-07T07:00:04;1.10;99.90
72865;DHT22;61000;48.120;11.548;2024-01-07T07:02:31;1.00;99.90
72865;DHT22;61000;48.120;11.548;2024-01-07T07:04:58;1.30;99.90
72865;DHT22;61000;48.120;11.548;2024-01-07T07:07:25;1.30;99.90
72865;DHT22;61000;48.120;11.548;2024-01-07T07:09:52;1.10;99.90
72865;DHT22;61000;48.120;11.548;2024-01-07T07:12:19;1.40;99.90
72865;DHT22;61000;48.120;11.548;2024-01-07T07:14:46;1.10;99.90
72865;DHT22;61000;48.120;11.548;2024-01-07T07:17:15;1.10;99.90
72865;DHT22;61000;48.120;11.548;2024-01-07T07:19:42;1.00;99.90
72865;DHT22;61000;48.120;11.548;2024-01-07T07:22:09;1.10;99.90
72865;DHT22;61000;48.120;11.548;2024-01-07T07:24:40;1.20;99.90
72865;DHT22;61000;48.120;11.548;2024-01-07T07:27:07;1.30;99.90
72865;DHT22;61000;48.120;11.548;2024-01-07T07:29:34;1.10;99.90
72865;DHT22;61000;48.120;11.548;2024-01-07T07:32:00;1.40;99.90
72865;DHT22;61000;48.120;11.548;2024-01-07T07:34:29;1.30;99.90
72865;DHT22;61000;48.120;11.548;2024-01-07T07:36:56;1.20;99.90
72865;DHT22;61000;48.120;11.548;2024-01-07T07:39:22;1.20;99.90
72865;DHT22;61000;48.120;11.548;2024-01-07T07:41:49;1.30;99.90
72865;DHT22;61000;48.120;11.548;2024-01-07T07:44:16;1.40;99.90
72865;DHT22;61000;48.120;11.548;2024-01-07T07:49:10;1.10;99.90
72865;DHT22;61000;48.120;11.548;2024-01-07T07:51:39;1.20;99.90
72865;DHT22;61000;48.120;11.548;2024-01-07T07:54:06;1.30;99.90
72865;DHT22;61000;48.120;11.548;2024-01-07T07:56:33;1.10;99.90
72865;DHT22;61000;48.120;11.548;2024-01-07T08:01:29;1.20;99.90
72865;DHT22;61000;48.120;11.548;2024-01-07T08:03:56;1.30;99.90
72865;DHT22;61000;48.120;11.548;2024-01-07T08:06:23;1.30;99.90
72865;DHT22;61000;48.120;11.548;2024-01-07T08:08:51;1.00;99.90
72865;DHT22;61000;48.120;11.548;2024-01-07T08:11:18;0.90;99.90
72865;DHT22;61000;48.120;11.548;2024-01-07T08:13:45;1.20;99.90
72865;DHT22;61000;48.120;11.548;2024-01-07T08:18:39;0.80;99.90
72865;DHT22;61000;48.120;11.548;2024-01-07T08:21:06;1.20;99.90
72865;DHT22;61000;48.120;11.548;2024-01-07T08:23:33;1.10;99.90
72865;DHT22;61000;48.120;11.548;2024-01-07T08:26:02;1.00;99.90
72865;DHT22;61000;48.120;11.548;2024-01-07T08:28:29;1.20;99.90
72865;DHT22;61000;48.120;11.548;2024-01-07T08:30:56;1.20;99.90
72865;DHT22;61000;48.120;11.548;2024-01-07T08:33:23;1.20;99.90
72865;DHT22;61000;48.120;11.548;2024-01-07T08:38:17;1.10;99.90
72865;DHT22;61000;48.120;11.548;2024-01-07T08:43:13;0.90;99.90
72865;DHT22;61000;48.120;11.548;2024-01-07T08:45:40;1.30;99.90
72865;DHT22;61000;48.120;11.548;2024-01-07T08:48:07;0.90;99.90
72865;DHT22;61000;48.120;11.548;2024-01-07T08:50:35;1.00;99.90
72865;DHT22;61000;48.120;11.548;2024-01-07T08:53:02;1.20;99.90
72865;DHT22;61000;48.120;11.548;2024-01-07T08:55:28;0.90;99.90
72865;DHT22;61000;48.120;11.548;2024-01-07T08:57:55;1.10;99.90
72865;DHT22;61000;48.120;11.548;2024-01-07T09:00:24;0.90;99.90
72865;DHT22;61000;48.120;11.548;2024-01-07T09:02:52;1.30;99.90
72865;DHT22;61000;48.120;11.548;2024-01-07T09:05:19;1.10;99.90
72865;DHT22;61000;48.120;11.548;2024-01-07T09:07:46;0.90;99.90
72865;DHT22;61000;48.120;11.548;2024-01-07T09:10:13;1.10;99.90
72865;DHT22;61000;48.120;11.548;2024-01-07T09:12:40;0.80;99.90
72865;DHT22;61000;48.120;11.548;2024-01-07T09:15:07;0.90;99.90
72865;DHT22;61000;48.120;11.548;2024-01-07T09:17:37;0.90;99.90
72865;DHT22;61000;48.120;11.548;2024-01-07T09:20:06;0.80;99.90
72865;DHT22;61000;48.120;11.548;2024-01-07T09:22:34;0.90;99.90
72865;DHT22;61000;48.120;11.548;2024-01-07T09:25:02;1.10;99.90
72865;DHT22;61000;48.120;11.548;2024-01-07T09:27:29;1.40;99.90
72865;DHT22;61000;48.120;11.548;2024-01-07T09:29:56;1.20;99.90
72865;DHT22;61000;48.120;11.548;2024-01-07T09:32:23;1.20;99.90
72865;DHT22;61000;48.120;11.548;2024-01-07T09:34:51;1.20;99.90
72865;DHT22;61000;48.120;11.548;2024-01-07T09:37:19;1.20;99.90
72865;DHT22;61000;48.120;11.548;2024-01-07T09:39:46;1.10;99.90
72865;DHT22;61000;48.120;11.548;2024-01-07T09:42:14;1.10;99.90
72865;DHT22;61000;48.120;11.548;2024-01-07T09:44:41;1.30;99.90
72865;DHT22;61000;48.120;11.548;2024-01-07T09:47:11;1.30;99.90
72865;DHT22;61000;48.120;11.548;2024-01-07T09:49:38;1.30;99.90
72865;DHT22;61000;48.120;11.548;2024-01-07T09:52:08;1.00;99.90
72865;DHT22;61000;48.120;11.548;2024-01-07T09:54:36;1.20;99.90
72865;DHT22;61000;48.120;11.548;2024-01-07T09:57:05;1.00;99.90
72865;DHT22;61000;48.120;11.548;2024-01-07T09:59:33;1.10;99.90
72865;DHT22;61000;48.120;11.548;2024-01-07T10:02:00;1.20;99.90
72865;DHT22;61000;48.120;11.548;2024-01-07T10:04:28;1.00;99.90
72865;DHT22;61000;48.120;11.548;2024-01-07T10:06:55;1.10;99.90
72865;DHT22;61000;48.120;11.548;2024-01-07T10:09:24;1.10;99.90
72865;DHT22;61000;48.120;11.548;2024-01-07T10:11:52;1.00;99.90
72865;DHT22;61000;48.120;11.548;2024-01-07T10:14:19;1.30;99.90
72865;DHT22;61000;48.120;11.548;2024-01-07T10:19:20;1.00;99.90
72865;DHT22;61000;48.120;11.548;2024-01-07T10:21:58;1.50;99.90
72865;DHT22;61000;48.120;11.548;2024-01-07T10:24:35;1.00;99.90
72865;DHT22;61000;48.120;11.548;2024-01-07T10:27:04;1.30;99.90
72865;DHT22;61000;48.120;11.548;2024-01-07T10:29:31;1.20;99.90
72865;DHT22;61000;48.120;11.548;2024-01-07T10:31:58;1.00;99.90
72865;DHT22;61000;48.120;11.548;2024-01-07T10:34:29;1.00;99.90
72865;DHT22;61000;48.120;11.548;2024-01-07T10:36:58;1.20;99.90
72865;DHT22;61000;48.120;11.548;2024-01-07T10:39:27;1.30;99.90
72865;DHT22;61000;48.120;11.548;2024-01-07T10:41:55;1.20;99.90
72865;DHT22;61000;48.120;11.548;2024-01-07T10:44:25;1.10;99.90
72865;DHT22;61000;48.120;11.548;2024-01-07T10:46:54;1.10;99.90
72865;DHT22;61000;48.120;11.548;2024-01-07T10:49:23;1.20;99.90
72865;DHT22;61000;48.120;11.548;2024-01-07T10:52:01;1.30;99.90
72865;DHT22;61000;48.120;11.548;2024-01-07T10:54:31;1.20;99.90
72865;DHT22;61000;48.120;11.548;2024-01-07T10:57:04;1.40;99.90
72865;DHT22;61000;48.120;11.548;2024-01-07T10:59:34;1.10;99.90
72865;DHT22;61000;48.120;11.548;2024-01-07T11:02:03;1.30;99.90
72865;DHT22;61000;48.120;11.548;2024-01-07T11:04:36;1.30;99.90
72865;DHT22;61000;48.120;11.548;2024-01-07T11:07:13;1.10;99.90
72865;DHT22;61000;48.120;11.548;2024-01-07T11:09:56;1.20;99.90
72865;DHT22;61000;48.120;11.548;2024-01-07T11:12:30;1.20;99.90
72865;DHT22;61000;48.120;11.548;2024-01-07T11:17:42;0.90;99.90
72865;DHT22;61000;48.120;11.548;2024-01-07T11:20:14;1.00;99.90
72865;DHT22;61000;48.120;11.548;2024-01-07T11:22:44;1.00;99.90
72865;DHT22;61000;48.120;11.548;2024-01-07T11:25:30;1.20;99.90
72865;DHT22;61000;48.120;11.548;2024-01-07T11:28:06;1.20;99.90
72865;DHT22;61000;48.120;11.548;2024-01-07T11:30:38;1.20;99.90
72865;DHT22;61000;48.120;11.548;2024-01-07T11:33:06;0.90;99.90
72865;DHT22;61000;48.120;11.548;2024-01-07T11:36:04;1.10;99.90
72865;DHT22;61000;48.120;11.548;2024-01-07T11:38:31;1.10;99.90
72865;DHT22;61000;48.120;11.548;2024-01-07T11:41:03;1.00;99.90
72865;DHT22;61000;48.120;11.548;2024-01-07T11:43:31;0.80;99.90
72865;DHT22;61000;48.120;11.548;2024-01-07T11:53:21;0.60;99.90
72865;DHT22;61000;48.120;11.548;2024-01-07T11:55:50;0.70;99.90
72865;DHT22;61000;48.120;11.548;2024-01-07T11:58:19;1.50;99.90
72865;DHT22;61000;48.120;11.548;2024-01-07T15:28:16;-0.10;99.90
72865;DHT22;61000;48.120;11.548;2024-01-07T15:30:43;-0.10;99.90
72865;DHT22;61000;48.120;11.548;2024-01-07T15:33:10;-0.10;99.90
72865;DHT22;61000;48.120;11.548;2024-01-07T15:35:37;0.10;99.90
72865;DHT22;61000;48.120;11.548;2024-01-07T15:38:04;-0.20;99.90
72865;DHT22;61000;48.120;11.548;2024-01-07T15:40:32;-0.20;99.90
72865;DHT22;61000;48.120;11.548;2024-01-07T15:42:59;-0.10;99.90
72865;DHT22;61000;48.120;11.548;2024-01-07T15:45:26;-0.20;99.90
72865;DHT22;61000;48.120;11.548;2024-01-07T15:47:53;-0.20;99.90
72865;DHT22;61000;48.120;11.548;2024-01-07T15:50:20;-0.20;99.90
72865;DHT22;61000;48.120;11.548;2024-01-07T15:52:47;0.00;99.90
72865;DHT22;61000;48.120;11.548;2024-01-07T15:55:16;-0.20;99.90
72865;DHT22;61000;48.120;11.548;2024-01-07T15:57:45;-0.30;99.90
72865;DHT22;61000;48.120;11.548;2024-01-07T16:00:13;-0.30;99.90
72865;DHT22;61000;48.120;11.548;2024-01-07T16:02:40;-0.40;99.90
72865;DHT22;61000;48.120;11.548;2024-01-07T16:05:07;-0.30;99.90
72865;DHT22;61000;48.120;11.548;2024-01-07T16:07:34;-0.30;99.90
72865;DHT22;61000;48.120;11.548;2024-01-07T16:10:01;-0.30;99.90
72865;DHT22;61000;48.120;11.548;2024-01-07T16:12:29;-0.30;99.90
72865;DHT22;61000;48.120;11.548;2024-01-07T16:15:24;0.10;99.90
72865;DHT22;61000;48.120;11.548;2024-01-07T16:17:52;-0.40;99.90
72865;DHT22;61000;48.120;11.548;2024-01-07T16:20:19;-0.30;99.90
72865;DHT22;61000;48.120;11.548;2024-01-07T16:22:48;-0.40;99.90
72865;DHT22;61000;48.120;11.548;2024-01-07T16:25:25;-0.40;99.90
72865;DHT22;61000;48.120;11.548;2024-01-07T16:27:55;-0.50;99.90
72865;DHT22;61000;48.120;11.548;2024-01-07T16:33:45;0.00;99.90
72865;DHT22;61000;48.120;11.548;2024-01-07T16:36:13;-0.30;99.90
72865;DHT22;61000;48.120;11.548;2024-01-07T16:38:40;-0.30;99.90
72865;DHT22;61000;48.120;11.548;2024-01-07T16:41:07;-0.30;99.90
72865;DHT22;61000;48.120;11.548;2024-01-07T16:43:35;-0.40;99.90
72865;DHT22;61000;48.120;11.548;2024-01-07T16:46:14;-0.40;99.90
72865;DHT22;61000;48.120;11.548;2024-01-07T16:49:13;0.10;99.90
72865;DHT22;61000;48.120;11.548;2024-01-07T16:52:22;1.00;99.90
72865;DHT22;61000;48.120;11.548;2024-01-07T16:58:27;0.20;99.90
72865;DHT22;61000;48.120;11.548;2024-01-07T17:03:02;0.20;99.90
72865;DHT22;61000;48.120;11.548;2024-01-07T17:09:02;-0.20;99.90
72865;DHT22;61000;48.120;11.548;2024-01-07T17:11:29;-0.60;99.90
72865;DHT22;61000;48.120;11.548;2024-01-07T17:13:59;0.70;99.90
72865;DHT22;61000;48.120;11.548;2024-01-07T17:16:26;-0.20;99.90
72865;DHT22;61000;48.120;11.548;2024-01-07T17:18:54;-0.40;99.90
72865;DHT22;61000;48.120;11.548;2024-01-07T17:21:23;-0.60;99.90
72865;DHT22;61000;48.120;11.548;2024-01-07T17:23:50;-0.30;99.90
72865;DHT22;61000;48.120;11.548;2024-01-07T17:26:54;-0.40;99.90
72865;DHT22;61000;48.120;11.548;2024-01-07T17:30:37;-0.50;99.90
72865;DHT22;61000;48.120;11.548;2024-01-07T17:37:12;-0.40;99.90
72865;DHT22;61000;48.120;11.548;2024-01-07T17:41:11;-0.40;99.90
72865;DHT22;61000;48.120;11.548;2024-01-07T17:44:03;-0.60;99.90
72865;DHT22;61000;48.120;11.548;2024-01-07T17:46:30;-0.60;99.90
72865;DHT22;61000;48.120;11.548;2024-01-07T17:48:57;-0.60;99.90
72865;DHT22;61000;48.120;11.548;2024-01-07T17:51:24;-0.70;99.90
72865;DHT22;61000;48.120;11.548;2024-01-07T17:54:08;-0.60;99.90
72865;DHT22;61000;48.120;11.548;2024-01-07T17:56:35;-0.60;99.90
72865;DHT22;61000;48.120;11.548;2024-01-07T17:59:05;-0.80;99.90
72865;DHT22;61000;48.120;11.548;2024-01-07T18:01:33;0.30;99.90
72865;DHT22;61000;48.120;11.548;2024-01-07T18:04:00;-0.70;99.90
72865;DHT22;61000;48.120;11.548;2024-01-07T18:06:27;-0.70;99.90
72865;DHT22;61000;48.120;11.548;2024-01-07T18:08:54;-0.80;99.90
72865;DHT22;61000;48.120;11.548;2024-01-07T18:11:21;-0.60;99.90
72865;DHT22;61000;48.120;11.548;2024-01-07T18:13:48;-0.80;99.90
72865;DHT22;61000;48.120;11.548;2024-01-07T18:16:16;-0.70;99.90
72865;DHT22;61000;48.120;11.548;2024-01-07T18:18:43;-0.70;99.90
72865;DHT22;61000;48.120;11.548;2024-01-07T18:21:13;-0.80;99.90
72865;DHT22;61000;48.120;11.548;2024-01-07T18:23:40;-0.80;99.90
72865;DHT22;61000;48.120;11.548;2024-01-07T18:26:07;-0.40;99.90
72865;DHT22;61000;48.120;11.548;2024-01-07T18:28:36;-0.80;99.90
72865;DHT22;61000;48.120;11.548;2024-01-07T18:31:03;-0.70;99.90
72865;DHT22;61000;48.120;11.548;2024-01-07T18:33:31;-0.80;99.90
72865;DHT22;61000;48.120;11.548;2024-01-07T18:35:58;-0.80;99.90
72865;DHT22;61000;48.120;11.548;2024-01-07T18:38:25;-0.80;99.90
72865;DHT22;61000;48.120;11.548;2024-01-07T18:40:52;-0.80;99.90
72865;DHT22;61000;48.120;11.548;2024-01-07T18:43:19;-0.60;99.90
72865;DHT22;61000;48.120;11.548;2024-01-07T18:45:47;-0.80;99.90
72865;DHT22;61000;48.120;11.548;2024-01-07T18:48:14;-0.90;99.90
72865;DHT22;61000;48.120;11.548;2024-01-07T18:50:45;-0.90;99.90
72865;DHT22;61000;48.120;11.548;2024-01-07T18:53:12;-0.90;99.90
72865;DHT22;61000;48.120;11.548;2024-01-07T18:55:39;-0.80;99.90
72865;DHT22;61000;48.120;11.548;2024-01-07T18:58:09;-0.90;99.90
72865;DHT22;61000;48.120;11.548;2024-01-07T19:01:01;-0.80;99.90
72865;DHT22;61000;48.120;11.548;2024-01-07T19:03:40;-1.00;99.90
72865;DHT22;61000;48.120;11.548;2024-01-07T19:06:30;0.70;99.90
72865;DHT22;61000;48.120;11.548;2024-01-07T19:08:59;-0.60;99.90
72865;DHT22;61000;48.120;11.548;2024-01-07T19:11:28;-1.10;99.90
72865;DHT22;61000;48.120;11.548;2024-01-07T19:14:10;1.00;99.90
72865;DHT22;61000;48.120;11.548;2024-01-07T19:16:52;-0.80;99.90
72865;DHT22;61000;48.120;11.548;2024-01-07T19:19:22;-1.20;99.90
72865;DHT22;61000;48.120;11.548;2024-01-07T19:21:57;-1.30;99.90
72865;DHT22;61000;48.120;11.548;2024-01-07T19:24:30;-2.00;99.90
72865;DHT22;61000;48.120;11.548;2024-01-07T19:27:00;-1.40;99.90
72865;DHT22;61000;48.120;11.548;2024-01-07T19:29:34;-0.60;99.90
72865;DHT22;61000;48.120;11.548;2024-01-07T21:08:47;-2.30;99.90
72865;DHT22;61000;48.120;11.548;2024-01-07T21:11:14;-2.30;99.90
72865;DHT22;61000;48.120;11.548;2024-01-07T21:13:44;-2.40;99.90
72865;DHT22;61000;48.120;11.548;2024-01-07T21:16:13;-2.40;99.90
72865;DHT22;61000;48.120;11.548;2024-01-07T21:18:39;-2.30;99.90
72865;DHT22;61000;48.120;11.548;2024-01-07T21:21:06;-2.40;99.90
72865;DHT22;61000;48.120;11.548;2024-01-07T21:23:33;-2.40;99.90
72865;DHT22;61000;48.120;11.548;2024-01-07T21:26:03;-2.40;99.90
72865;DHT22;61000;48.120;11.548;2024-01-07T21:28:31;-2.40;99.90